Lia Ievoli — IBDX — position and weather

sailwx.info

Track history (hours):
 
Tides and Currents Weather Stations Pressure Air Temp Water Temp Dewpoint Dewpoint Depression Visibility Wind Speed Wind Dir Waves Ship Positions

Lia Ievoli

Last reported at 2018-Aug-21 03:30 UTC. Time now 2018-Aug-21 03:55 UTC.
Position N 37°55' E 023°05'.

Length 131 m; draft 7.7 m.

Type: Ship. MMSI: 247346000.

Date/timePositionNaut miles runAvg speedWind from/ knotsBaromVisibWave heightAir tempDewpointWater temp
2018-Aug-21 03:30N 37°55' E 023°05'0 0.0
2018-Aug-21 03:03N 37°55' E 023°05'0 0.1
2018-Aug-21 03:00N 37°55' E 023°05'0 0.0
2018-Aug-21 02:30N 37°55' E 023°05'0 0.0
2018-Aug-21 02:03N 37°55' E 023°05'0 0.0
2018-Aug-21 02:00N 37°55' E 023°05'0 0.0
2018-Aug-21 01:30N 37°55' E 023°05'0 0.0
2018-Aug-21 01:03N 37°55' E 023°05'0 0.0
2018-Aug-21 01:00N 37°55' E 023°05'0 0.0
2018-Aug-21 00:30N 37°55' E 023°05'0 0.0
2018-Aug-21 00:03N 37°55' E 023°05'0 0.1
2018-Aug-21 00:00N 37°55' E 023°05'0 0.0
2018-Aug-20 23:30N 37°55' E 023°05'0 0.0
2018-Aug-20 23:03N 37°55' E 023°05'0 0.1
2018-Aug-20 23:00N 37°55' E 023°05'0 0.0
2018-Aug-20 22:30N 37°55' E 023°05'0 0.0
2018-Aug-20 22:03N 37°55' E 023°05'0 0.1
2018-Aug-20 22:00N 37°55' E 023°05'0 0.0
2018-Aug-20 21:30N 37°55' E 023°05'0 0.0
2018-Aug-20 21:03N 37°55' E 023°05'0 0.0
2018-Aug-20 21:00N 37°55' E 023°05'0 0.0
2018-Aug-20 20:30N 37°55' E 023°05'0 0.0
2018-Aug-20 20:03N 37°55' E 023°05'0 0.0
2018-Aug-20 20:00N 37°55' E 023°05'0 0.0
2018-Aug-20 19:30N 37°55' E 023°05'0 0.0
2018-Aug-20 19:03N 37°55' E 023°05'0 0.1
2018-Aug-20 19:00N 37°55' E 023°05'0 0.0
2018-Aug-20 18:30N 37°55' E 023°05'0 0.0
2018-Aug-20 18:03N 37°55' E 023°05'0 0.1
2018-Aug-20 18:00N 37°55' E 023°05'0 0.0
2018-Aug-20 17:30N 37°55' E 023°05'0 0.0
2018-Aug-20 17:03N 37°55' E 023°05'0 0.0
2018-Aug-20 17:00N 37°55' E 023°05'0 0.0
2018-Aug-20 16:29N 37°55' E 023°05'0 0.0
2018-Aug-20 16:02N 37°55' E 023°05'0 0.0
2018-Aug-20 15:59N 37°55' E 023°05'0 0.0
2018-Aug-20 15:30N 37°55' E 023°05'0 0.9
2018-Aug-20 15:03N 37°55' E 023°05'0 3.3
2018-Aug-20 15:00N 37°54' E 023°05'6 6.7
2018-Aug-20 14:04N 37°53' E 023°13'111.7
2018-Aug-20 14:00N 37°53' E 023°14'612.1
2018-Aug-20 13:30N 37°52' E 023°21'511.8
2018-Aug-20 13:04N 37°51' E 023°28'111.9
2018-Aug-20 13:01N 37°50' E 023°29'3 6.5
2018-Aug-20 12:29N 37°52' E 023°33'0 0.2
2018-Aug-20 12:02N 37°52' E 023°33'0 0.2
2018-Aug-20 11:59N 37°52' E 023°33'0 0.0
2018-Aug-20 11:29N 37°52' E 023°33'0 0.0
2018-Aug-20 11:02N 37°52' E 023°33'0 0.1
2018-Aug-20 10:59N 37°52' E 023°33'0 0.0
2018-Aug-20 10:29N 37°52' E 023°33'0 0.0
2018-Aug-20 10:02N 37°52' E 023°33'0 0.0
2018-Aug-20 09:59N 37°52' E 023°33'0 0.0
2018-Aug-20 09:29N 37°52' E 023°33'0 0.0
2018-Aug-20 09:01N 37°52' E 023°33'0 0.0
2018-Aug-20 08:59N 37°52' E 023°33'0 0.0
2018-Aug-20 08:28N 37°52' E 023°33'0 0.0
2018-Aug-20 08:01N 37°52' E 023°33'0 0.1
2018-Aug-20 07:58N 37°52' E 023°33'0 0.0
2018-Aug-20 07:25N 37°52' E 023°33'0 0.1
2018-Aug-20 07:01N 37°52' E 023°33'0 0.1
2018-Aug-20 06:58N 37°52' E 023°33'0 0.0
2018-Aug-20 06:28N 37°52' E 023°33'0 0.0
2018-Aug-20 06:01N 37°52' E 023°33'0 0.2
2018-Aug-20 05:58N 37°52' E 023°33'0 0.4
2018-Aug-20 05:30N 37°52' E 023°33'3 6.8
2018-Aug-20 05:03N 37°52' E 023°37'0 9.8
2018-Aug-20 05:00N 37°52' E 023°37'2 8.6
2018-Aug-20 04:47N 37°51' E 023°39'310.7
2018-Aug-20 04:30N 37°48' E 023°41'510.5
2018-Aug-20 04:00N 37°43' E 023°44'510.4
2018-Aug-20 03:30N 37°38' E 023°46'  
2018-Aug-13 16:27N 37°05' E 015°51'25 0.7
2018-Aug-12 05:28N 37°27' E 015°38'1810.1
2018-Aug-12 03:42N 37°40' E 015°54'210.4
2018-Aug-12 03:30N 37°41' E 015°56'610.7
2018-Aug-12 02:58N 37°45' E 016°01'  
Track history (hours):
 
Tides and Currents Weather Stations Pressure Air Temp Water Temp Dewpoint Dewpoint Depression Visibility Wind Speed Wind Dir Waves Ship Positions

Lia Ievoli

Last reported at 2018-Aug-21 03:30 UTC. Time now 2018-Aug-21 03:55 UTC.
Position N 37°55' E 023°05'.

Length 131 m; draft 7.7 m.

Type: Ship. MMSI: 247346000.

Date/timePositionNaut miles runAvg speedWind from/ knotsBaromVisibWave heightAir tempDewpointWater temp
2018-Aug-21 03:30N 37°55' E 023°05'0 0.0
2018-Aug-21 03:03N 37°55' E 023°05'0 0.1
2018-Aug-21 03:00N 37°55' E 023°05'0 0.0
2018-Aug-21 02:30N 37°55' E 023°05'0 0.0
2018-Aug-21 02:03N 37°55' E 023°05'0 0.0
2018-Aug-21 02:00N 37°55' E 023°05'0 0.0
2018-Aug-21 01:30N 37°55' E 023°05'0 0.0
2018-Aug-21 01:03N 37°55' E 023°05'0 0.0
2018-Aug-21 01:00N 37°55' E 023°05'0 0.0
2018-Aug-21 00:30N 37°55' E 023°05'0 0.0
2018-Aug-21 00:03N 37°55' E 023°05'0 0.1
2018-Aug-21 00:00N 37°55' E 023°05'0 0.0
2018-Aug-20 23:30N 37°55' E 023°05'0 0.0
2018-Aug-20 23:03N 37°55' E 023°05'0 0.1
2018-Aug-20 23:00N 37°55' E 023°05'0 0.0
2018-Aug-20 22:30N 37°55' E 023°05'0 0.0
2018-Aug-20 22:03N 37°55' E 023°05'0 0.1
2018-Aug-20 22:00N 37°55' E 023°05'0 0.0
2018-Aug-20 21:30N 37°55' E 023°05'0 0.0
2018-Aug-20 21:03N 37°55' E 023°05'0 0.0
2018-Aug-20 21:00N 37°55' E 023°05'0 0.0
2018-Aug-20 20:30N 37°55' E 023°05'0 0.0
2018-Aug-20 20:03N 37°55' E 023°05'0 0.0
2018-Aug-20 20:00N 37°55' E 023°05'0 0.0
2018-Aug-20 19:30N 37°55' E 023°05'0 0.0
2018-Aug-20 19:03N 37°55' E 023°05'0 0.1
2018-Aug-20 19:00N 37°55' E 023°05'0 0.0
2018-Aug-20 18:30N 37°55' E 023°05'0 0.0
2018-Aug-20 18:03N 37°55' E 023°05'0 0.1
2018-Aug-20 18:00N 37°55' E 023°05'0 0.0
2018-Aug-20 17:30N 37°55' E 023°05'0 0.0
2018-Aug-20 17:03N 37°55' E 023°05'0 0.0
2018-Aug-20 17:00N 37°55' E 023°05'0 0.0
2018-Aug-20 16:29N 37°55' E 023°05'0 0.0
2018-Aug-20 16:02N 37°55' E 023°05'0 0.0
2018-Aug-20 15:59N 37°55' E 023°05'0 0.0
2018-Aug-20 15:30N 37°55' E 023°05'0 0.9
2018-Aug-20 15:03N 37°55' E 023°05'0 3.3
2018-Aug-20 15:00N 37°54' E 023°05'6 6.7
2018-Aug-20 14:04N 37°53' E 023°13'111.7
2018-Aug-20 14:00N 37°53' E 023°14'612.1
2018-Aug-20 13:30N 37°52' E 023°21'511.8
2018-Aug-20 13:04N 37°51' E 023°28'111.9
2018-Aug-20 13:01N 37°50' E 023°29'3 6.5
2018-Aug-20 12:29N 37°52' E 023°33'0 0.2
2018-Aug-20 12:02N 37°52' E 023°33'0 0.2
2018-Aug-20 11:59N 37°52' E 023°33'0 0.0
2018-Aug-20 11:29N 37°52' E 023°33'0 0.0
2018-Aug-20 11:02N 37°52' E 023°33'0 0.1
2018-Aug-20 10:59N 37°52' E 023°33'0 0.0
2018-Aug-20 10:29N 37°52' E 023°33'0 0.0
2018-Aug-20 10:02N 37°52' E 023°33'0 0.0
2018-Aug-20 09:59N 37°52' E 023°33'0 0.0
2018-Aug-20 09:29N 37°52' E 023°33'0 0.0
2018-Aug-20 09:01N 37°52' E 023°33'0 0.0
2018-Aug-20 08:59N 37°52' E 023°33'0 0.0
2018-Aug-20 08:28N 37°52' E 023°33'0 0.0
2018-Aug-20 08:01N 37°52' E 023°33'0 0.1
2018-Aug-20 07:58N 37°52' E 023°33'0 0.0
2018-Aug-20 07:25N 37°52' E 023°33'0 0.1
2018-Aug-20 07:01N 37°52' E 023°33'0 0.1
2018-Aug-20 06:58N 37°52' E 023°33'0 0.0
2018-Aug-20 06:28N 37°52' E 023°33'0 0.0
2018-Aug-20 06:01N 37°52' E 023°33'0 0.2
2018-Aug-20 05:58N 37°52' E 023°33'0 0.4
2018-Aug-20 05:30N 37°52' E 023°33'3 6.8
2018-Aug-20 05:03N 37°52' E 023°37'0 9.8
2018-Aug-20 05:00N 37°52' E 023°37'2 8.6
2018-Aug-20 04:47N 37°51' E 023°39'310.7
2018-Aug-20 04:30N 37°48' E 023°41'510.5
2018-Aug-20 04:00N 37°43' E 023°44'510.4
2018-Aug-20 03:30N 37°38' E 023°46'  
2018-Aug-13 16:27N 37°05' E 015°51'25 0.7
2018-Aug-12 05:28N 37°27' E 015°38'1810.1
2018-Aug-12 03:42N 37°40' E 015°54'210.4
2018-Aug-12 03:30N 37°41' E 015°56'610.7
2018-Aug-12 02:58N 37°45' E 016°01'  

Dump ship's entire track history